Time;durP1;ratioP1;P1;durP2;ratioP2;P2;SDS_P1;SDS_P2;PMS_P1;PMS_P2;Temp;Humidity;BMP_temperature;BMP_pressure;BME280_temperature;BME280_humidity;BME280_pressure;Samples;Min_cycle;Max_cycle;Signal;HPM_P1;HPM_P2
2023/01/26 00:00:50;;;;;;;205.05;55.58;;;;;;;-0.40;100.00;102496.94;5020129;28;20053;-71
2023/01/26 00:03:16;;;;;;;198.25;49.22;;;;;;;-0.62;100.00;102485.34;5014901;28;20042;-70
2023/01/26 00:05:42;;;;;;;201.38;53.63;;;;;;;-0.49;100.00;102491.59;5016863;28;20625;-71
2023/01/26 00:08:07;;;;;;;182.02;49.38;;;;;;;-0.56;100.00;102488.03;5023378;28;21890;-70
2023/01/26 00:10:36;;;;;;;192.25;50.53;;;;;;;-0.63;100.00;102480.13;5021141;28;20047;-70
2023/01/26 00:13:02;;;;;;;197.52;48.42;;;;;;;-0.49;100.00;102485.47;5020015;28;20057;-71
2023/01/26 00:15:28;;;;;;;173.90;47.75;;;;;;;-0.53;100.00;102469.72;5022582;28;20485;-70
2023/01/26 00:17:53;;;;;;;196.18;50.60;;;;;;;-0.44;100.00;102468.94;5023152;28;20041;-70
2023/01/26 00:20:19;;;;;;;176.23;45.97;;;;;;;-0.60;100.00;102467.94;5020267;28;20038;-70
2023/01/26 00:22:44;;;;;;;202.25;46.72;;;;;;;-0.54;100.00;102461.88;5022986;28;20128;-70
2023/01/26 00:25:10;;;;;;;192.38;49.38;;;;;;;-0.50;100.00;102473.22;5022204;28;20129;-70
2023/01/26 00:27:35;;;;;;;188.52;46.85;;;;;;;-0.57;100.00;102462.69;5022076;28;20037;-69
2023/01/26 00:30:03;;;;;;;188.05;48.00;;;;;;;-0.48;100.00;102459.28;5006584;28;20041;-70
2023/01/26 00:32:29;;;;;;;172.88;43.88;;;;;;;-0.47;100.00;102453.19;5007846;28;20568;-71
2023/01/26 00:34:54;;;;;;;187.45;45.25;;;;;;;-0.48;100.00;102451.44;5030140;28;20041;-70
2023/01/26 00:37:19;;;;;;;172.43;42.95;;;;;;;-0.46;100.00;102443.56;5021414;28;20037;-70
2023/01/26 00:39:45;;;;;;;168.50;42.30;;;;;;;-0.36;100.00;102440.16;5008357;28;20175;-70
2023/01/26 00:42:12;;;;;;;179.82;45.53;;;;;;;-0.42;100.00;102440.13;5017554;28;20152;-70
2023/01/26 00:44:44;;;;;;;166.00;42.55;;;;;;;-0.23;100.00;102433.28;5022500;28;20037;-70
2023/01/26 00:47:11;;;;;;;190.32;45.40;;;;;;;-0.33;100.00;102435.81;5041704;28;20132;-71
2023/01/26 00:49:37;;;;;;;173.65;44.22;;;;;;;-0.46;100.00;102427.84;5028130;28;20041;-71
2023/01/26 00:52:03;;;;;;;178.75;44.47;;;;;;;-0.39;100.00;102425.31;5018208;28;20071;-71
2023/01/26 00:54:29;;;;;;;159.52;42.17;;;;;;;-0.39;100.00;102422.69;5018625;28;20038;-71
2023/01/26 00:56:55;;;;;;;174.10;41.78;;;;;;;-0.35;100.00;102428.78;5021801;28;20549;-72
2023/01/26 00:59:20;;;;;;;161.07;41.67;;;;;;;-0.35;100.00;102424.47;5006741;28;20048;-72
2023/01/26 01:01:47;;;;;;;171.82;41.00;;;;;;;-0.41;100.00;102429.63;5001655;28;20045;-72
2023/01/26 01:04:13;;;;;;;168.15;43.58;;;;;;;-0.43;100.00;102427.88;5019631;28;20098;-71
2023/01/26 01:06:38;;;;;;;148.82;39.42;;;;;;;-0.41;100.00;102431.38;5006404;28;20452;-72
2023/01/26 01:09:07;;;;;;;178.13;42.60;;;;;;;-0.29;100.00;102427.13;5004837;28;20046;-71
2023/01/26 01:11:32;;;;;;;147.45;39.08;;;;;;;-0.36;100.00;102422.69;5015926;28;20052;-72
2023/01/26 01:13:58;;;;;;;163.18;42.70;;;;;;;-0.30;100.00;102414.88;5019300;28;20494;-71
2023/01/26 01:16:24;;;;;;;157.55;39.92;;;;;;;-0.19;100.00;102419.31;5023180;28;20080;-72
2023/01/26 01:18:54;;;;;;;135.82;38.08;;;;;;;-0.51;100.00;102422.56;5007925;28;20593;-71
2023/01/26 01:21:20;;;;;;;156.40;40.85;;;;;;;-0.47;100.00;102421.72;5027037;28;20463;-72
2023/01/26 01:23:49;;;;;;;157.15;39.58;;;;;;;-0.44;100.00;102416.53;5025487;28;20115;-72
2023/01/26 01:26:15;;;;;;;154.18;39.78;;;;;;;-0.43;100.00;102418.28;5000204;28;20045;-72
2023/01/26 01:28:42;;;;;;;137.00;39.17;;;;;;;-0.38;100.00;102413.94;5016104;28;20061;-72
2023/01/26 01:31:17;;;;;;;141.65;39.22;;;;;;;-0.19;100.00;102416.69;4999604;28;20037;-71
2023/01/26 01:33:43;;;;;;;150.57;38.90;;;;;;;-0.24;100.00;102419.28;5025546;28;20112;-72
2023/01/26 01:36:16;;;;;;;160.63;38.08;;;;;;;-0.19;100.00;102417.56;5007624;28;20124;-71
2023/01/26 01:38:43;;;;;;;158.57;42.03;;;;;;;-0.06;100.00;102424.63;5023584;28;20043;-74
2023/01/26 01:41:09;;;;;;;140.95;38.78;;;;;;;-0.12;100.00;102415.84;5024975;28;20036;-72
2023/01/26 01:43:35;;;;;;;162.35;41.90;;;;;;;-0.19;100.00;102408.84;5008576;28;20502;-71
2023/01/26 01:46:06;;;;;;;158.95;42.58;;;;;;;-0.38;100.00;102410.44;5015924;28;20042;-71
2023/01/26 01:49:12;;;;;;;151.90;41.65;;;;;;;-0.37;100.00;102414.81;5001401;28;20048;-71
2023/01/26 01:51:42;;;;;;;167.25;43.83;;;;;;;-0.35;100.00;102411.34;5006902;28;20037;-71
2023/01/26 01:54:16;;;;;;;167.77;42.72;;;;;;;-0.18;100.00;102410.59;5022086;28;20054;-72
2023/01/26 01:56:47;;;;;;;163.82;39.92;;;;;;;-0.32;100.00;102418.34;5026928;28;20056;-71
2023/01/26 01:59:13;;;;;;;163.07;41.88;;;;;;;-0.24;100.00;102405.31;5006026;28;20445;-71
2023/01/26 02:01:38;;;;;;;158.70;37.42;;;;;;;-0.41;100.00;102405.19;5004957;28;20047;-71
2023/01/26 02:04:06;;;;;;;155.00;38.78;;;;;;;-0.27;100.00;102399.16;5008302;28;20051;-71
2023/01/26 02:06:52;;;;;;;160.13;39.92;;;;;;;-0.27;100.00;102399.16;5024759;28;20033;-71
2023/01/26 02:12:11;;;;;;;150.05;39.95;;;;;;;-0.19;100.00;102396.59;5010584;28;20541;-71
2023/01/26 02:14:38;;;;;;;158.85;42.70;;;;;;;-0.21;100.00;102394.81;5013638;28;20451;-71
2023/01/26 02:17:03;;;;;;;140.13;39.17;;;;;;;-0.16;100.00;102386.13;5032021;28;20077;-71
2023/01/26 02:19:50;;;;;;;160.80;42.40;;;;;;;-0.16;100.00;102387.88;5014701;28;20217;-71
2023/01/26 02:22:41;;;;;;;145.40;37.22;;;;;;;-0.11;100.00;102388.78;5007840;28;20044;-72
2023/01/26 02:25:37;;;;;;;137.85;36.50;;;;;;;-0.15;100.00;102394.84;5027056;28;20044;-72
2023/01/26 02:28:03;;;;;;;156.38;37.92;;;;;;;-0.24;100.00;102377.34;4997628;28;20053;-71
2023/01/26 02:30:29;;;;;;;137.23;33.47;;;;;;;-0.24;100.00;102382.59;5012029;28;20487;-72
2023/01/26 02:32:54;;;;;;;138.77;37.60;;;;;;;-0.24;100.00;102387.84;5005352;28;20167;-71
2023/01/26 02:35:20;;;;;;;149.15;39.30;;;;;;;-0.21;100.00;102384.34;5029549;28;20033;-71
2023/01/26 02:37:45;;;;;;;149.15;38.45;;;;;;;-0.25;100.00;102380.84;5009310;28;20848;-71
2023/01/26 02:40:26;;;;;;;152.73;40.30;;;;;;;-0.29;100.00;102384.31;5008666;28;20060;-72
2023/01/26 02:42:53;;;;;;;120.93;32.50;;;;;;;-0.30;100.00;102382.56;5024462;28;20098;-71
2023/01/26 02:45:20;;;;;;;136.50;35.97;;;;;;;-0.52;100.00;102377.16;5034265;28;20569;-72
2023/01/26 02:47:55;;;;;;;144.85;39.92;;;;;;;-0.24;100.00;102384.34;5008027;28;20646;-71
2023/01/26 02:50:20;;;;;;;134.07;37.78;;;;;;;-0.28;100.00;102380.81;5012932;28;20851;-72
2023/01/26 02:52:45;;;;;;;144.30;36.80;;;;;;;-0.16;100.00;102378.25;5028248;28;20188;-71
2023/01/26 02:55:24;;;;;;;141.68;35.90;;;;;;;-0.31;100.00;102376.41;4994110;28;20126;-71
2023/01/26 02:57:52;;;;;;;144.40;37.72;;;;;;;-0.29;100.00;102381.69;5011193;28;20033;-71
2023/01/26 03:00:26;;;;;;;135.18;36.28;;;;;;;-0.23;100.00;102378.22;5033128;28;20548;-71
2023/01/26 03:02:55;;;;;;;129.65;36.03;;;;;;;-0.33;100.00;102383.41;5025989;28;20118;-71
2023/01/26 03:05:23;;;;;;;149.38;38.45;;;;;;;-0.49;100.00;102380.69;5023982;28;20041;-71
2023/01/26 03:07:49;;;;;;;140.90;36.28;;;;;;;-0.18;100.00;102374.75;5010071;28;20043;-71
2023/01/26 03:10:17;;;;;;;147.68;38.28;;;;;;;-0.22;100.00;102374.72;5014545;28;20040;-71
2023/01/26 03:12:44;;;;;;;143.10;36.75;;;;;;;-0.24;100.00;102366.00;5012761;28;20188;-71
2023/01/26 03:29:04;;;;;;;130.90;35.42;;;;;;;-0.06;100.00;102372.19;5014776;28;20073;-72
2023/01/26 03:31:29;;;;;;;134.70;38.53;;;;;;;-0.05;100.00;102373.97;5013500;28;20033;-71
2023/01/26 03:33:55;;;;;;;143.60;38.63;;;;;;;-0.01;100.00;102377.47;5008843;28;20762;-71
2023/01/26 03:36:21;;;;;;;139.90;37.83;;;;;;;-0.14;100.00;102371.28;5012460;28;20478;-72
2023/01/26 03:38:46;;;;;;;140.57;35.65;;;;;;;-0.08;100.00;102373.06;5029558;28;20082;-71
2023/01/26 03:57:39;;;;;;;132.15;35.70;;;;;;;-0.16;100.00;102380.00;5031329;28;20046;-71
2023/01/26 04:00:10;;;;;;;126.15;37.42;;;;;;;0.10;100.00;102382.75;5005561;28;20048;-71
2023/01/26 04:10:55;;;;;;;116.72;32.92;;;;;;;0.02;100.00;102374.00;5032545;28;20892;-70
2023/01/26 04:21:39;;;;;;;113.93;31.27;;;;;;;0.17;100.00;102372.31;5007947;28;20033;-71
2023/01/26 04:24:16;;;;;;;119.25;31.65;;;;;;;0.17;100.00;102381.94;5013277;28;20128;-72
2023/01/26 04:26:43;;;;;;;110.75;32.05;;;;;;;-0.05;100.00;102381.84;5010839;28;20121;-71
2023/01/26 04:29:14;;;;;;;105.82;30.17;;;;;;;-0.01;100.00;102377.47;5005453;28;20087;-71
2023/01/26 04:31:41;;;;;;;98.38;27.30;;;;;;;0.01;100.00;102380.13;5003516;28;20041;-71
2023/01/26 04:34:13;;;;;;;92.97;28.38;;;;;;;0.21;100.00;102375.84;5029157;28;20158;-71
2023/01/26 04:36:40;;;;;;;104.78;28.48;;;;;;;0.06;100.00;102376.63;5012719;28;20045;-71
2023/01/26 04:39:06;;;;;;;95.45;28.27;;;;;;;0.33;100.00;102375.00;5004355;28;20037;-71
2023/01/26 04:41:33;;;;;;;103.63;28.58;;;;;;;0.39;100.00;102368.00;5001125;28;20052;-71
2023/01/26 04:44:03;;;;;;;86.15;27.60;;;;;;;0.40;100.00;102366.25;5005578;28;20045;-71
2023/01/26 04:46:28;;;;;;;104.13;28.15;;;;;;;0.33;100.00;102369.75;5004838;28;20037;-71
2023/01/26 04:48:54;;;;;;;99.47;28.77;;;;;;;0.43;100.00;102374.16;5001999;28;20071;-71
2023/01/26 04:51:21;;;;;;;88.13;25.60;;;;;;;0.39;100.00;102365.38;5005190;28;20116;-71
2023/01/26 04:53:48;;;;;;;91.65;25.33;;;;;;;0.16;100.00;102356.59;5008848;28;20037;-71
2023/01/26 04:56:25;;;;;;;80.57;23.40;;;;;;;0.27;100.00;102360.13;4989327;28;20812;-71
2023/01/26 04:58:52;;;;;;;80.00;23.42;;;;;;;0.41;100.00;102360.16;5020196;28;20064;-71
2023/01/26 05:01:18;;;;;;;85.68;24.48;;;;;;;0.30;100.00;102360.09;5008310;28;20034;-71
2023/01/26 05:03:44;;;;;;;71.55;22.17;;;;;;;0.22;100.00;102359.22;5010978;28;20032;-71
2023/01/26 05:06:10;;;;;;;78.05;24.33;;;;;;;0.24;100.00;102353.09;5009479;28;20029;-71
2023/01/26 05:08:37;;;;;;;92.35;25.23;;;;;;;0.22;100.00;102352.22;5022196;28;20033;-71
2023/01/26 05:11:04;;;;;;;84.75;22.42;;;;;;;0.31;100.00;102346.16;4993041;28;20045;-71
2023/01/26 05:14:05;;;;;;;87.73;21.77;;;;;;;0.26;100.00;102342.63;4943039;28;20066;-71
2023/01/26 05:16:35;;;;;;;84.00;23.88;;;;;;;0.46;100.00;102343.56;5010565;28;20106;-71
2023/01/26 05:19:20;;;;;;;82.18;23.17;;;;;;;0.31;100.00;102343.53;5025923;28;20152;-72
2023/01/26 05:22:06;;;;;;;80.53;22.75;;;;;;;0.32;100.00;102334.78;5014763;28;20048;-71
2023/01/26 05:24:34;;;;;;;89.45;24.70;;;;;;;0.30;100.00;102341.75;5011936;28;20042;-71
2023/01/26 05:29:46;;;;;;;76.15;22.63;;;;;;;0.35;100.00;102350.53;5012552;28;20094;-71
2023/01/26 05:32:11;;;;;;;78.65;22.85;;;;;;;0.19;100.00;102352.19;5036701;28;20058;-72
2023/01/26 05:34:37;;;;;;;80.95;23.80;;;;;;;0.37;100.00;102347.91;5010189;28;20040;-71
2023/01/26 05:37:03;;;;;;;73.82;21.60;;;;;;;0.35;100.00;102349.63;5014749;28;20072;-71
2023/01/26 05:39:30;;;;;;;71.88;21.60;;;;;;;0.28;100.00;102347.88;5008983;28;20022;-71
2023/01/26 05:41:56;;;;;;;72.72;22.02;;;;;;;0.38;100.00;102344.41;5014788;28;20065;-71
2023/01/26 05:44:48;;;;;;;64.70;20.35;;;;;;;0.62;100.00;102341.84;5007928;28;20585;-72
2023/01/26 05:47:14;;;;;;;60.63;19.63;;;;;;;0.59;100.00;102340.94;5010927;28;20599;-71
2023/01/26 05:49:42;;;;;;;66.88;19.55;;;;;;;0.44;100.00;102344.41;5015319;28;20138;-71
2023/01/26 05:52:13;;;;;;;72.28;20.38;;;;;;;0.66;100.00;102351.47;5005642;28;20069;-71
2023/01/26 05:54:41;;;;;;;67.47;19.52;;;;;;;0.62;100.00;102343.59;5008391;28;20045;-71
2023/01/26 05:57:07;;;;;;;73.18;21.33;;;;;;;0.58;100.00;102337.44;5007054;28;20513;-72
2023/01/26 05:59:37;;;;;;;61.05;17.23;;;;;;;0.55;100.00;102353.19;5019436;28;20569;-71
2023/01/26 06:02:05;;;;;;;70.82;19.88;;;;;;;0.42;100.00;102346.16;5007817;28;20094;-71
2023/01/26 06:04:34;;;;;;;61.88;19.70;;;;;;;0.27;100.00;102348.75;5008851;28;20043;-71
2023/01/26 06:07:00;;;;;;;60.70;17.85;;;;;;;0.48;100.00;102348.81;5007258;28;20103;-72
2023/01/26 06:09:35;;;;;;;62.40;19.17;;;;;;;0.56;100.00;102351.47;5006820;28;20048;-73
2023/01/26 06:12:01;;;;;;;75.47;22.80;;;;;;;0.46;100.00;102351.44;5027855;28;20041;-72
2023/01/26 06:15:06;;;;;;;63.08;19.98;;;;;;;0.55;100.00;102358.44;4913293;29;20842;-71
2023/01/26 06:17:36;;;;;;;68.07;20.55;;;;;;;0.47;100.00;102357.56;4914731;29;20039;-71
2023/01/26 06:20:05;;;;;;;61.40;20.05;;;;;;;0.57;100.00;102355.84;4956755;28;20084;-72
2023/01/26 06:22:30;;;;;;;63.20;19.13;;;;;;;0.60;100.00;102361.06;5003852;28;20040;-72
2023/01/26 06:24:57;;;;;;;71.88;20.20;;;;;;;0.47;100.00;102350.56;5003144;28;20543;-71
2023/01/26 06:27:26;;;;;;;61.88;18.25;;;;;;;0.61;100.00;102361.09;5025076;28;20037;-71
2023/01/26 06:29:55;;;;;;;59.30;18.65;;;;;;;0.52;100.00;102356.69;4999959;28;20091;-71
2023/01/26 06:32:21;;;;;;;65.03;19.23;;;;;;;0.56;100.00;102352.34;5006305;28;20060;-71
2023/01/26 06:34:52;;;;;;;70.97;20.88;;;;;;;0.65;100.00;102361.94;5002491;28;20149;-72
2023/01/26 06:37:18;;;;;;;62.88;18.63;;;;;;;0.51;100.00;102359.31;4999927;28;20635;-72
2023/01/26 06:39:43;;;;;;;67.65;19.50;;;;;;;0.66;100.00;102361.09;5022761;28;20037;-71
2023/01/26 06:42:13;;;;;;;67.22;19.65;;;;;;;0.71;100.00;102369.88;5001148;28;20086;-71
2023/01/26 06:44:42;;;;;;;56.47;19.67;;;;;;;0.78;100.00;102366.38;5015387;28;20044;-72
2023/01/26 06:47:07;;;;;;;62.67;19.35;;;;;;;0.55;100.00;102358.44;5004621;28;20049;-72
2023/01/26 06:49:33;;;;;;;63.28;20.67;;;;;;;0.59;100.00;102359.31;4998460;28;20026;-71
2023/01/26 06:52:34;;;;;;;58.70;19.42;;;;;;;0.68;100.00;102362.84;5005275;28;20044;-71
2023/01/26 06:55:16;;;;;;;61.70;19.00;;;;;;;0.61;100.00;102363.72;4990812;28;20825;-72
2023/01/26 06:57:55;;;;;;;58.67;19.65;;;;;;;0.69;100.00;102367.22;5025061;28;20124;-72
2023/01/26 07:00:54;;;;;;;61.60;18.50;;;;;;;0.66;100.00;102369.84;5011520;28;20129;-72
2023/01/26 07:03:27;;;;;;;71.43;19.42;;;;;;;0.63;100.00;102374.22;5026709;28;20064;-71
2023/01/26 07:05:58;;;;;;;68.75;20.08;;;;;;;0.66;100.00;102375.09;5031237;28;20131;-72
2023/01/26 07:08:24;;;;;;;60.30;17.88;;;;;;;0.71;100.00;102376.00;5031528;28;20041;-71
2023/01/26 07:10:49;;;;;;;67.80;21.33;;;;;;;0.76;100.00;102373.38;5036756;28;20051;-71
2023/01/26 07:13:15;;;;;;;66.18;21.80;;;;;;;0.65;100.00;102373.34;5023524;28;20057;-71
2023/01/26 07:15:40;;;;;;;62.45;20.50;;;;;;;0.80;100.00;102376.84;5030713;28;20055;-71
2023/01/26 07:18:06;;;;;;;70.47;21.40;;;;;;;0.81;100.00;102376.00;5025422;28;20137;-71
2023/01/26 07:20:31;;;;;;;77.32;21.88;;;;;;;0.80;100.00;102374.22;5033157;28;20033;-71
2023/01/26 07:23:00;;;;;;;69.57;20.70;;;;;;;0.77;100.00;102383.00;5018735;28;20032;-71
2023/01/26 07:25:25;;;;;;;77.05;21.92;;;;;;;0.73;100.00;102376.84;5025695;28;20149;-71
2023/01/26 07:27:56;;;;;;;68.00;19.75;;;;;;;0.84;100.00;102381.25;5022469;28;20565;-71
2023/01/26 07:30:21;;;;;;;76.32;24.17;;;;;;;0.86;100.00;102382.16;5020895;28;20041;-71
2023/01/26 07:32:47;;;;;;;78.22;24.05;;;;;;;0.87;100.00;102379.50;5027417;28;20037;-71
2023/01/26 07:35:12;;;;;;;77.07;23.08;;;;;;;0.80;100.00;102382.97;5026799;28;20120;-72
2023/01/26 07:37:38;;;;;;;67.38;21.95;;;;;;;0.82;100.00;102381.25;5026732;28;20033;-71
2023/01/26 07:40:04;;;;;;;75.15;23.70;;;;;;;0.75;100.00;102382.09;5021214;28;20556;-71
2023/01/26 07:42:30;;;;;;;69.93;21.20;;;;;;;0.89;100.00;102387.38;5029108;28;20037;-71
2023/01/26 07:45:25;;;;;;;72.65;21.92;;;;;;;0.80;100.00;102385.59;5002447;28;20053;-71
2023/01/26 07:47:53;;;;;;;74.40;22.70;;;;;;;0.84;100.00;102384.75;5026316;28;20475;-71
2023/01/26 07:50:20;;;;;;;72.90;22.85;;;;;;;0.90;100.00;102386.50;5022132;28;20037;-71
2023/01/26 07:52:46;;;;;;;88.53;23.15;;;;;;;0.91;100.00;102393.53;5031514;28;20402;-71
2023/01/26 07:55:12;;;;;;;75.38;23.30;;;;;;;1.00;100.00;102396.13;5027214;28;20862;-71
2023/01/26 07:57:37;;;;;;;80.25;24.90;;;;;;;1.07;100.00;102399.69;5008581;28;20037;-71
2023/01/26 08:00:03;;;;;;;80.00;24.48;;;;;;;0.98;100.00;102393.53;5026869;28;20195;-71
2023/01/26 08:02:37;;;;;;;82.95;23.60;;;;;;;1.10;100.00;102395.28;5024457;28;20034;-71
2023/01/26 08:05:02;;;;;;;82.70;24.42;;;;;;;1.16;100.00;102399.69;5021669;28;20075;-71
2023/01/26 08:07:28;;;;;;;82.72;25.55;;;;;;;1.00;100.00;102397.06;5023428;28;20060;-71
2023/01/26 08:09:57;;;;;;;77.55;25.98;;;;;;;0.89;100.00;102398.75;5025947;28;20133;-71
2023/01/26 08:12:23;;;;;;;74.97;23.77;;;;;;;1.02;100.00;102403.16;5033399;28;20037;-71
2023/01/26 08:14:49;;;;;;;92.57;24.02;;;;;;;1.24;100.00;102398.78;5026206;28;20775;-72
2023/01/26 08:17:16;;;;;;;83.35;23.52;;;;;;;1.16;100.00;102405.81;5023820;28;20037;-71
2023/01/26 08:19:41;;;;;;;79.18;23.00;;;;;;;1.22;100.00;102404.94;5019934;28;20638;-72
2023/01/26 08:22:07;;;;;;;81.53;22.38;;;;;;;1.30;100.00;102400.53;5023082;28;20033;-72
2023/01/26 08:24:32;;;;;;;89.50;24.23;;;;;;;1.29;100.00;102402.28;5029143;28;20040;-71
2023/01/26 08:26:58;;;;;;;78.38;22.27;;;;;;;1.32;100.00;102409.31;5025871;28;20025;-72
2023/01/26 08:29:32;;;;;;;90.75;23.80;;;;;;;1.23;100.00;102404.06;5026084;28;20514;-72
2023/01/26 08:31:58;;;;;;;67.45;20.83;;;;;;;1.25;100.00;102402.28;5029024;28;20052;-72
2023/01/26 08:34:25;;;;;;;68.97;20.83;;;;;;;1.36;100.00;102402.31;5035779;28;20061;-72
2023/01/26 08:36:50;;;;;;;79.22;23.23;;;;;;;1.39;100.00;102405.81;5021517;28;20048;-71
2023/01/26 08:39:19;;;;;;;82.05;24.42;;;;;;;1.32;100.00;102406.69;5035489;28;20049;-72
2023/01/26 08:41:47;;;;;;;85.53;23.92;;;;;;;1.39;100.00;102404.94;5030806;28;20064;-71
2023/01/26 08:44:12;;;;;;;76.50;22.00;;;;;;;1.47;100.00;102408.44;5036815;28;20113;-72
2023/01/26 08:46:38;;;;;;;69.28;23.10;;;;;;;1.53;100.00;102406.69;5032609;28;20140;-72
2023/01/26 08:49:09;;;;;;;83.28;23.42;;;;;;;1.39;100.00;102403.16;5035702;28;20044;-71
2023/01/26 08:51:35;;;;;;;90.63;23.90;;;;;;;1.46;100.00;102406.69;5036101;28;20147;-71
2023/01/26 08:54:00;;;;;;;76.80;23.33;;;;;;;1.48;100.00;102404.94;5030757;28;20033;-72
2023/01/26 08:56:26;;;;;;;80.22;22.60;;;;;;;1.57;100.00;102412.81;5026395;28;20049;-72
2023/01/26 08:58:51;;;;;;;84.50;24.73;;;;;;;1.57;100.00;102407.56;5030840;28;20038;-71
2023/01/26 09:01:16;;;;;;;89.70;23.42;;;;;;;1.77;100.00;102416.28;5021797;28;20271;-72
2023/01/26 09:03:43;;;;;;;77.35;22.67;;;;;;;1.80;100.00;102413.63;5028835;28;20041;-72
2023/01/26 09:06:11;;;;;;;88.80;23.48;;;;;;;1.48;100.00;102418.94;5034270;28;20040;-72
2023/01/26 09:08:36;;;;;;;90.53;25.20;;;;;;;1.72;100.00;102418.06;5030602;28;20065;-71
2023/01/26 09:11:04;;;;;;;83.40;21.70;;;;;;;1.79;100.00;102426.81;5030389;28;20152;-72
2023/01/26 09:13:30;;;;;;;87.35;23.58;;;;;;;1.81;100.00;102419.81;5031496;28;20038;-72
2023/01/26 09:15:56;;;;;;;75.75;22.77;;;;;;;2.18;100.00;102411.81;5022484;28;20048;-71
2023/01/26 09:18:21;;;;;;;98.78;24.60;;;;;;;2.26;100.00;102410.00;5032318;28;20561;-71
2023/01/26 09:20:46;;;;;;;90.93;25.30;;;;;;;2.25;100.00;102403.88;5026562;28;20389;-72
2023/01/26 09:23:12;;;;;;;96.65;23.27;;;;;;;2.36;100.00;102402.94;5029551;28;20041;-72
2023/01/26 09:25:38;;;;;;;88.70;23.58;;;;;;;2.29;100.00;102400.34;5036111;28;20114;-72
2023/01/26 09:28:05;;;;;;;78.28;21.60;;;;;;;2.61;100.00;102404.63;5026371;28;20398;-71
2023/01/26 09:30:31;;;;;;;84.88;22.58;;;;;;;2.55;100.00;102399.34;5031360;28;20562;-71
2023/01/26 09:32:58;;;;;;;85.53;23.45;;;;;;;2.47;100.00;102407.31;5029290;28;20214;-72
2023/01/26 09:35:23;;;;;;;95.65;22.80;;;;;;;2.59;100.00;102409.88;5035505;28;20033;-71
2023/01/26 09:37:49;;;;;;;75.10;21.17;;;;;;;2.57;100.00;102409.00;5013168;28;20485;-71
2023/01/26 09:40:40;;;;;;;82.93;23.50;;;;;;;2.52;100.00;102413.44;5003569;28;20037;-72
2023/01/26 09:43:34;;;;;;;88.75;22.92;;;;;;;2.47;100.00;102411.69;5019555;28;20057;-70
2023/01/26 09:46:30;;;;;;;85.38;24.40;;;;;;;2.45;100.00;102409.06;5024431;28;20053;-72
2023/01/26 09:49:06;;;;;;;87.18;22.05;;;;;;;2.47;100.00;102416.97;5028152;28;20052;-71
2023/01/26 09:51:37;;;;;;;101.93;23.77;;;;;;;2.81;100.00;102408.00;5021373;28;20072;-70
2023/01/26 09:54:48;;;;;;;85.47;24.23;;;;;;;2.91;100.00;102411.44;5013049;28;20047;-72
2023/01/26 09:57:22;;;;;;;107.60;24.90;;;;;;;2.96;100.00;102408.78;5021452;28;20049;-71
2023/01/26 10:00:16;;;;;;;95.30;24.35;;;;;;;3.30;100.00;102399.72;5029517;28;20643;-71
2023/01/26 10:03:10;;;;;;;109.18;23.48;;;;;;;3.16;100.00;102398.09;5028688;28;20056;-71
2023/01/26 10:06:12;;;;;;;100.50;23.17;;;;;;;3.02;100.00;102401.72;5028479;28;20095;-72
2023/01/26 10:09:11;;;;;;;141.15;25.25;;;;;;;3.02;100.00;102414.03;5030370;28;20029;-72
2023/01/26 10:11:45;;;;;;;122.35;23.13;;;;;;;3.27;100.00;102406.81;5022061;28;20038;-71
2023/01/26 10:14:13;;;;;;;183.77;27.88;;;;;;;3.17;100.00;102406.00;5034377;28;20055;-72
2023/01/26 10:16:39;;;;;;;146.35;25.20;;;;;;;3.15;100.00;102405.13;5031543;28;20051;-71
2023/01/26 10:19:15;;;;;;;182.77;28.33;;;;;;;3.05;100.00;102409.59;5023415;28;20048;-71
2023/01/26 10:21:44;;;;;;;191.00;29.38;;;;;;;3.32;100.00;102403.25;5031922;28;20048;-71
2023/01/26 10:24:10;;;;;;;219.18;31.08;;;;;;;3.37;100.00;102408.50;5028978;28;20095;-71
2023/01/26 10:26:36;;;;;;;127.82;25.30;;;;;;;3.25;100.00;102414.72;5027442;28;20071;-72
2023/01/26 10:29:02;;;;;;;141.93;25.55;;;;;;;3.13;100.00;102404.28;5023938;28;20036;-72
2023/01/26 10:31:32;;;;;;;265.60;30.50;;;;;;;2.82;100.00;102411.53;5024536;28;20063;-72
2023/01/26 10:34:02;;;;;;;217.00;30.67;;;;;;;3.00;100.00;102419.28;5028475;28;20041;-71
2023/01/26 10:36:31;;;;;;;146.65;25.48;;;;;;;3.28;100.00;102406.78;5026222;28;20481;-71
2023/01/26 10:39:05;;;;;;;161.10;24.95;;;;;;;3.08;100.00;102412.22;5022508;28;20045;-71
2023/01/26 10:41:30;;;;;;;159.00;26.52;;;;;;;3.13;100.00;102409.56;5028718;28;20390;-71
2023/01/26 10:43:56;;;;;;;149.43;22.45;;;;;;;3.08;100.00;102417.47;5007156;28;20037;-71
2023/01/26 10:46:41;;;;;;;171.60;22.15;;;;;;;2.73;100.00;102419.47;5031120;28;20033;-71
2023/01/26 10:49:07;;;;;;;152.50;21.92;;;;;;;2.83;100.00;102429.94;5023088;28;20104;-71
2023/01/26 10:51:35;;;;;;;146.30;23.50;;;;;;;2.83;100.00;102440.47;5023291;28;20715;-71
2023/01/26 10:54:18;;;;;;;133.75;19.38;;;;;;;3.01;100.00;102423.69;5031259;28;20045;-71
2023/01/26 10:56:49;;;;;;;111.00;21.42;;;;;;;3.02;100.00;102429.84;5029084;28;20688;-71
2023/01/26 10:59:26;;;;;;;160.48;21.02;;;;;;;2.93;100.00;102437.78;5023378;28;20451;-71
2023/01/26 11:01:53;;;;;;;143.85;21.35;;;;;;;3.08;100.00;102435.06;5023594;28;20033;-72
2023/01/26 11:04:24;;;;;;;114.32;20.42;;;;;;;3.28;100.00;102437.56;5026354;28;20465;-71
2023/01/26 11:06:50;;;;;;;83.22;15.15;;;;;;;2.86;100.00;102429.03;5030740;28;20045;-71
2023/01/26 11:09:23;;;;;;;108.22;16.55;;;;;;;2.98;100.00;102438.63;5025320;28;20075;-71
2023/01/26 11:12:04;;;;;;;122.80;19.45;;;;;;;3.07;100.00;102443.84;5022247;28;20078;-71
2023/01/26 11:14:31;;;;;;;128.23;21.45;;;;;;;3.23;100.00;102439.34;5026258;28;20045;-71
2023/01/26 11:17:21;;;;;;;120.50;20.20;;;;;;;3.58;100.00;102439.06;5009460;28;20086;-71
2023/01/26 11:20:15;;;;;;;111.47;17.13;;;;;;;3.59;100.00;102431.13;5028002;28;20053;-71
2023/01/26 11:23:09;;;;;;;84.68;16.52;;;;;;;3.78;100.00;102434.50;5013710;28;20056;-71
2023/01/26 11:25:56;;;;;;;53.85;12.68;;;;;;;3.57;100.00;102426.78;5020666;28;20048;-71
2023/01/26 11:28:43;;;;;;;100.32;17.15;;;;;;;3.82;100.00;102436.22;5022898;28;20042;-71
2023/01/26 11:31:15;;;;;;;61.80;13.00;;;;;;;4.00;100.00;102427.22;5012809;28;20589;-71
2023/01/26 11:33:52;;;;;;;74.13;14.90;;;;;;;4.12;100.00;102432.38;5022252;28;20033;-71
2023/01/26 11:36:54;;;;;;;77.15;14.85;;;;;;;4.00;100.00;102436.91;5024633;28;20048;-72
2023/01/26 11:39:35;;;;;;;69.53;14.15;;;;;;;3.97;100.00;102435.19;5022714;28;20053;-71
2023/01/26 11:42:19;;;;;;;81.10;14.70;;;;;;;4.11;100.00;102435.88;5026615;28;20040;-71
2023/01/26 11:44:58;;;;;;;91.68;15.20;;;;;;;4.52;100.00;102428.38;5027644;28;20473;-72
2023/01/26 11:47:54;;;;;;;69.88;13.85;;;;;;;4.39;100.00;102422.38;5026791;28;20049;-71
2023/01/26 11:50:33;;;;;;;67.95;15.02;;;;;;;4.58;100.00;102417.75;4978744;28;20064;-71
2023/01/26 11:53:05;;;;;;;66.97;15.05;;;;;;;4.75;100.00;102431.59;5030770;28;20053;-71
2023/01/26 11:56:00;;;;;;;50.60;14.20;;;;;;;4.83;100.00;102418.28;5027220;28;20076;-71
2023/01/26 11:58:49;;;;;;;58.50;13.77;;;;;;;4.77;100.00;102408.69;5025706;28;20036;-71
2023/01/26 12:01:21;;;;;;;81.55;15.65;;;;;;;4.92;100.00;102405.81;5017401;28;20045;-71
2023/01/26 12:03:48;;;;;;;;;;;;;;;5.01;100.00;102409.19;5024921;28;20048;-71
2023/01/26 12:06:28;;;;;;;57.60;14.05;;;;;;;5.04;100.00;102406.53;5026297;28;20445;-71
2023/01/26 12:09:17;;;;;;;76.57;16.10;;;;;;;5.10;100.00;102402.00;5022863;28;20037;-71
2023/01/26 12:12:03;;;;;;;65.88;13.88;;;;;;;5.20;100.00;102397.44;5026667;28;20037;-73
2023/01/26 12:14:52;;;;;;;86.20;17.58;;;;;;;5.29;100.00;102394.66;5033687;28;20056;-72